EW3511 Weather Reports


time (UTC)temp
C
wind
direction
speed
KPH
gust
KPH
rain 1hr
cm
rain 24hr
cm
rain mn
cm
humidity
%
barometer
mb
20190419064538 11 51 1.6 6.4 0.00 0.00 0.00 61 1028.0
20190419063558 11 97 3.2 8.0 0.00 0.00 0.00 62 1028.0
20190419062546 10 45 1.6 6.4 0.00 0.00 0.00 63 1027.9
20190419061535 10 64 1.6 6.4 0.00 0.00 0.00 64 1027.8
20190419060524 10 38 1.6 6.4 0.00 0.00 0.00 64 1027.7
20190419055544 9 39 0.0 3.2 0.00 0.00 0.00 64 1027.6
20190419054533 8 337 0.0 1.6 0.00 0.00 0.00 66 1027.6
20190419053554 8 0 0.0 1.6 0.00 0.00 0.00 67 1027.4
20190419052543 7 45 0.0 3.2 0.00 0.00 0.00 68 1027.3
20190419051534 6 59 0.0 3.2 0.00 0.00 0.00 68 1027.2
20190419050527 6 67 0.0 3.2 0.00 0.00 0.00 68 1027.1
20190419045613 5 0.0 0.0 0.00 0.00 0.00 68 1027.0
20190419044534 5 0.0 0.0 0.00 0.00 0.00 67 1026.9
20190419043555 5 0.0 0.0 0.00 0.00 0.00 67 1026.8
20190419042547 5 0.0 0.0 0.00 0.00 0.00 67 1026.7
20190419041539 5 0.0 0.0 0.00 0.00 0.00 66 1026.7
20190419040611 5 0.0 0.0 0.00 0.00 0.00 66 1026.7
20190419035551 6 67 0.0 1.6 0.00 0.00 0.00 65 1026.5
20190419034611 6 0.0 1.6 0.00 0.00 0.00 65 1026.5
20190419033532 6 0.0 0.0 0.00 0.00 0.00 64 1026.4
20190419032519 6 67 0.0 1.6 0.00 0.00 0.00 64 1026.4
20190419031611 7 0.0 0.0 0.00 0.00 0.00 64 1026.4
20190419030632 7 0.0 0.0 0.00 0.00 0.00 64 1026.3
20190419025553 7 67 0.0 1.6 0.00 0.00 0.00 63 1026.2
20190419024543 7 67 0.0 3.2 0.00 0.00 0.00 63 1026.1
20190419023532 7 22 0.0 1.6 0.00 0.00 0.00 63 1026.1
20190419022522 7 0.0 0.0 0.00 0.00 0.00 63 1026.1
20190419021614 7 0.0 0.0 0.00 0.00 0.00 63 1026.1
20190419020535 8 22 0.0 1.6 0.00 0.00 0.00 63 1026.0
20190419015524 8 22 0.0 1.6 0.00 0.00 0.00 62 1026.0
20190419014545 8 45 0.0 3.2 0.00 0.00 0.00 62 1025.9
20190419013535 8 22 0.0 1.6 0.00 0.00 0.00 62 1025.9
20190419012555 8 22 0.0 3.2 0.00 0.00 0.00 62 1025.9
20190419011545 8 22 0.0 1.6 0.00 0.00 0.00 62 1025.9
20190419010534 8 22 0.0 1.6 0.00 0.00 0.00 62 1025.9
20190419005523 8 41 1.6 3.2 0.00 0.00 0.00 62 1025.9
20190419004544 8 30 1.6 6.4 0.00 0.00 0.00 61 1025.9
20190419003533 8 29 0.0 1.6 0.00 0.00 0.00 61 1025.9
20190419002524 8 45 0.0 1.6 0.00 0.00 0.00 60 1025.9
20190419001544 9 0.0 0.0 0.00 0.00 0.00 60 1025.9
20190419000535 10 0.0 1.6 0.00 0.00 0.00 60 1025.9
20190418235628 10 45 0.0 1.6 0.00 0.00 0.00 60 1025.9
20190418234548 10 45 0.0 1.6 0.00 0.00 0.00 59 1026.0
20190418233537 10 62 1.6 3.2 0.00 0.00 0.00 59 1025.9
20190418232528 10 56 1.6 3.2 0.00 0.00 0.00 59 1025.9
20190418231548 10 54 1.6 6.4 0.00 0.00 0.00 58 1025.8
20190418230537 10 51 1.6 3.2 0.00 0.00 0.00 58 1025.8
20190418225528 10 52 1.6 8.0 0.00 0.00 0.00 58 1025.8
20190418224518 11 53 3.2 9.7 0.00 0.00 0.00 58 1025.8
20190418223538 11 64 0.0 6.4 0.00 0.00 0.00 58 1025.7
20190418222527 11 51 4.8 9.7 0.00 0.00 0.00 57 1025.6
20190418221547 11 60 6.4 12.9 0.00 0.00 0.00 57 1025.5
20190418220534 11 35 4.8 9.7 0.00 0.00 0.00 57 1025.4
20190418215548 11 63 6.4 9.7 0.00 0.00 0.00 57 1025.3
20190418214535 11 46 6.4 9.7 0.00 0.00 0.00 57 1025.3
20190418213524 11 52 4.8 9.7 0.00 0.00 0.00 56 1025.2
20190418212541 11 56 1.6 6.4 0.00 0.00 0.00 56 1025.2
20190418211528 12 40 1.6 6.4 0.00 0.00 0.00 55 1025.0
20190418210547 12 47 1.6 6.4 0.00 0.00 0.00 55 1025.0
20190418205536 12 59 1.6 6.4 0.00 0.00 0.00 55 1024.9
20190418204523 12 49 3.2 6.4 0.00 0.00 0.00 54 1024.8
20190418203541 12 54 3.2 8.0 0.00 0.00 0.00 54 1024.7
20190418202526 13 54 1.6 8.0 0.00 0.00 0.00 54 1024.7
20190418201540 13 41 1.6 6.4 0.00 0.00 0.00 54 1024.6
20190418200528 13 48 1.6 6.4 0.00 0.00 0.00 54 1024.6
20190418195545 13 22 0.0 6.4 0.00 0.00 0.00 53 1024.6
20190418194532 13 47 1.6 6.4 0.00 0.00 0.00 53 1024.7
20190418193520 14 33 1.6 6.4 0.00 0.00 0.00 52 1024.6
20190418192539 14 55 3.2 9.7 0.00 0.00 0.00 52 1024.5
20190418191532 15 35 1.6 6.4 0.00 0.00 0.00 51 1024.5
20190418190545 15 38 1.6 6.4 0.00 0.00 0.00 51 1024.4
20190418185529 15 31 0.0 3.2 0.00 0.00 0.00 50 1024.3
20190418184548 15 56 3.2 8.0 0.00 0.00 0.00 50 1024.2
20190418183536 16 34 4.8 14.5 0.00 0.00 0.00 50 1024.1
20190418182523 16 45 4.8 12.9 0.00 0.00 0.00 49 1024.0
20190418181543 16 43 4.8 14.5 0.00 0.00 0.00 49 1023.9
20190418180904 16 67 3.2 8.0 0.00 0.00 0.00 48 1023.9
20190418175528 17 37 3.2 12.9 0.00 0.00 0.00 47 1023.8
20190418174547 17 47 3.2 9.7 0.00 0.00 0.00 45 1023.7
20190418173535 17 43 3.2 8.0 0.00 0.00 0.00 44 1023.6
20190418172523 17 53 4.8 9.7 0.00 0.00 0.00 43 1023.5
20190418171543 18 51 3.2 9.7 0.00 0.00 0.00 42 1023.4
20190418170531 18 69 6.4 20.9 0.00 0.00 0.00 41 1023.4
20190418165550 18 53 4.8 14.5 0.00 0.00 0.00 41 1023.3
20190418164539 18 94 6.4 12.9 0.00 0.00 0.00 40 1023.3
20190418163548 18 44 6.4 16.1 0.00 0.00 0.00 39 1023.2
20190418162535 18 36 4.8 12.9 0.00 0.00 0.00 39 1023.2
20190418161523 18 38 4.8 12.9 0.00 0.00 0.00 38 1023.2
20190418160542 18 88 4.8 9.7 0.00 0.00 0.00 37 1023.3
20190418155530 18 84 6.4 16.1 0.00 0.00 0.00 37 1023.2
20190418154549 19 55 8.0 19.3 0.00 0.00 0.00 37 1023.1
20190418153537 19 105 4.8 20.9 0.00 0.00 0.00 36 1023.1
20190418152555 19 87 4.8 14.5 0.00 0.00 0.00 36 1023.1
20190418151544 19 128 6.4 19.3 0.00 0.00 0.00 37 1023.1
20190418150532 19 91 8.0 22.5 0.00 0.00 0.00 37 1023.1
20190418145551 18 62 6.4 14.5 0.00 0.00 0.00 36 1023.1
20190418144539 18 71 6.4 19.3 0.00 0.00 0.00 34 1023.2
20190418143527 18 80 4.8 19.3 0.00 0.00 0.00 35 1023.2
20190418142546 18 72 8.0 19.3 0.00 0.00 0.00 36 1023.3
20190418141535 19 68 6.4 12.9 0.00 0.00 0.00 36 1023.3
20190418140523 19 45 9.7 16.1 0.00 0.00 0.00 35 1023.3
20190418135542 19 49 8.0 16.1 0.00 0.00 0.00 37 1023.3
20190418134530 19 33 9.7 19.3 0.00 0.00 0.00 37 1023.2
20190418133548 18 85 8.0 19.3 0.00 0.00 0.00 35 1023.3
20190418132536 18 122 6.4 16.1 0.00 0.00 0.00 38 1023.2
20190418131554 18 37 3.2 12.9 0.00 0.00 0.00 39 1023.3
20190418130543 18 58 6.4 12.9 0.00 0.00 0.00 38 1023.4
20190418125532 18 86 6.4 16.1 0.00 0.00 0.00 36 1023.4
20190418124550 18 98 8.0 16.1 0.00 0.00 0.00 37 1023.4
20190418123538 18 57 8.0 16.1 0.00 0.00 0.00 37 1023.4
20190418122526 18 132 11.3 20.9 0.00 0.00 0.00 37 1023.5
20190418121546 18 76 8.0 16.1 0.00 0.00 0.00 37 1023.6
20190418120534 18 50 8.0 16.1 0.00 0.00 0.00 39 1023.6
20190418115522 17 50 8.0 16.1 0.00 0.00 0.00 39 1023.6
20190418114542 17 93 8.0 14.5 0.00 0.00 0.00 41 1023.8
20190418113530 17 99 8.0 16.1 0.00 0.00 0.00 42 1023.8
20190418112549 17 71 8.0 19.3 0.00 0.00 0.00 42 1023.8
20190418111538 17 78 8.0 19.3 0.00 0.00 0.00 44 1023.9
20190418110527 17 98 6.4 14.5 0.00 0.00 0.00 45 1023.9
20190418105547 17 136 9.7 16.1 0.00 0.00 0.00 45 1023.9
20190418104536 17 48 4.8 12.9 0.00 0.00 0.00 46 1023.9
20190418103525 16 79 4.8 14.5 0.00 0.00 0.00 47 1023.9
20190418102544 16 63 8.0 16.1 0.00 0.00 0.00 47 1024.0
20190418101533 16 111 6.4 16.1 0.00 0.00 0.00 47 1024.1
20190418100551 16 87 6.4 16.1 0.00 0.00 0.00 48 1024.2
20190418095539 16 55 4.8 9.7 0.00 0.00 0.00 48 1024.2
20190418094527 16 71 3.2 12.9 0.00 0.00 0.00 50 1024.2
20190418093546 15 95 3.2 9.7 0.00 0.00 0.00 51 1024.2
20190418092535 15 103 4.8 16.1 0.00 0.00 0.00 51 1024.3
20190418091557 15 135 8.0 14.5 0.00 0.00 0.00 51 1024.3
20190418090544 15 88 4.8 14.5 0.00 0.00 0.00 52 1024.3
20190418085532 14 123 4.8 9.7 0.00 0.00 0.00 53 1024.3
20190418084521 14 93 3.2 9.7 0.00 0.00 0.00 55 1024.3
20190418083541 13 102 4.8 9.7 0.00 0.00 0.00 55 1024.3
20190418082529 13 86 4.8 12.9 0.00 0.00 0.00 56 1024.3
20190418081547 13 135 4.8 12.9 0.00 0.00 0.00 56 1024.3
20190418080536 12 51 3.2 9.7 0.00 0.00 0.00 58 1024.3
20190418075556 12 72 3.2 8.0 0.00 0.00 0.00 59 1024.3
20190418074545 11 19 3.2 8.0 0.00 0.00 0.00 61 1024.3
20190418073534 11 118 4.8 8.0 0.00 0.00 0.00 61 1024.4
20190418072522 11 106 3.2 9.7 0.00 0.00 0.00 63 1024.4
20190418071543 10 78 3.2 8.0 0.00 0.00 0.00 64 1024.2
20190418070531 10 107 3.2 8.0 0.00 0.00 0.00 64 1024.3
20190418065551 10 51 3.2 6.4 0.00 0.00 0.00 66 1024.2